createdAt,value
2023-03-18T00:00:10.312Z,96658.75
2023-03-18T00:02:38.861Z,96658.03
2023-03-18T00:05:07.566Z,96662.19
2023-03-18T00:07:36.279Z,96660.19
2023-03-18T00:10:07.150Z,96660.88
2023-03-18T00:12:34.514Z,96648.50
2023-03-18T00:15:02.456Z,96645.06
2023-03-18T00:17:29.149Z,96658.75
2023-03-18T00:19:55.854Z,96651.84
2023-03-18T00:22:22.844Z,96658.63
2023-03-18T00:24:49.437Z,96660.06
2023-03-18T00:27:16.418Z,96654.59
2023-03-18T00:29:43.894Z,96649.13
2023-03-18T00:32:11.219Z,96647.09
2023-03-18T00:34:37.963Z,96655.31
2023-03-18T00:37:05.149Z,96660.19
2023-03-18T00:39:33.149Z,96660.19
2023-03-18T00:42:08.154Z,96660.19
2023-03-18T00:44:34.848Z,96666.38
2023-03-18T00:47:01.689Z,96658.16
2023-03-18T00:49:28.472Z,96658.88
2023-03-18T00:51:55.186Z,96669.81
2023-03-18T00:54:22.586Z,96665.75
2023-03-18T00:56:49.633Z,96671.94
2023-03-18T00:59:16.884Z,96667.78
2023-03-18T01:01:44.495Z,96670.53
2023-03-18T01:04:11.591Z,96671.84
2023-03-18T01:06:38.579Z,96666.38
2023-03-18T01:09:06.871Z,96668.41
2023-03-18T01:11:33.516Z,96664.34
2023-03-18T01:14:00.637Z,96667.78
2023-03-18T01:16:28.278Z,96664.34
2023-03-18T01:18:55.153Z,96666.38
2023-03-18T01:21:22.482Z,96666.38
2023-03-18T01:23:54.292Z,96663.63
2023-03-18T01:26:21.245Z,96669.81
2023-03-18T01:28:48.109Z,96669.09
2023-03-18T01:31:15.458Z,96667.78
2023-03-18T01:33:43.995Z,96652.69
2023-03-18T01:36:11.558Z,96656.00
2023-03-18T01:38:38.778Z,96654.00
2023-03-18T01:41:12.120Z,96654.00
2023-03-18T01:43:41.152Z,96664.94
2023-03-18T01:46:32.740Z,96671.72
2023-03-18T01:49:03.970Z,96671.72
2023-03-18T01:51:31.168Z,96666.13
2023-03-18T01:53:59.793Z,96671.59
2023-03-18T01:56:27.016Z,96673.63
2023-03-18T01:58:55.542Z,96667.44
2023-03-18T02:01:26.388Z,96670.16
2023-03-18T02:03:55.579Z,96664.59
2023-03-18T02:06:25.655Z,96659.13
2023-03-18T02:09:00.523Z,96661.00
2023-03-18T02:11:31.851Z,96654.09
2023-03-18T02:14:00.174Z,96660.88
2023-03-18T02:16:32.442Z,96660.19
2023-03-18T02:19:05.559Z,96665.53
2023-03-18T02:21:32.215Z,96659.34
2023-03-18T02:24:05.839Z,96655.88
2023-03-18T02:26:42.011Z,96659.94
2023-03-18T02:29:08.995Z,96653.59
2023-03-18T02:31:46.606Z,96657.66
2023-03-18T02:34:13.591Z,96661.00
2023-03-18T02:36:42.661Z,96653.38
2023-03-18T02:39:13.972Z,96651.22
2023-03-18T02:41:40.859Z,96651.81
2023-03-18T02:44:08.735Z,96666.81
2023-03-18T02:46:55.327Z,96650.88
2023-03-18T02:49:24.412Z,96658.25
2023-03-18T02:51:51.901Z,96658.84
2023-03-18T02:54:29.686Z,96655.28
2023-03-18T02:56:56.967Z,96644.22
2023-03-18T02:59:24.281Z,96644.22
2023-03-18T03:01:53.188Z,96645.50
2023-03-18T03:04:23.743Z,96643.34
2023-03-18T03:06:52.226Z,96634.31
2023-03-18T03:09:27.396Z,96644.41
2023-03-18T03:11:54.178Z,96641.56
2023-03-18T03:14:25.956Z,96623.03
2023-03-18T03:16:58.009Z,96633.81
2023-03-18T03:19:24.779Z,96635.84
2023-03-18T03:21:51.441Z,96639.19
2023-03-18T03:24:18.287Z,96645.25
2023-03-18T03:26:46.787Z,96643.09
2023-03-18T03:29:14.435Z,96647.13
2023-03-18T03:31:41.612Z,96640.97
2023-03-18T03:34:08.281Z,96645.00
2023-03-18T03:36:35.390Z,96646.31
2023-03-18T03:39:02.424Z,96651.03
2023-03-18T03:41:29.000Z,96659.84
2023-03-18T03:43:55.715Z,96657.72
2023-03-18T03:46:22.484Z,96651.53
2023-03-18T03:48:50.222Z,96650.09
2023-03-18T03:51:16.876Z,96658.16
2023-03-18T03:53:44.680Z,96655.31
2023-03-18T03:56:11.517Z,96653.91
2023-03-18T03:58:38.633Z,96651.03
2023-03-18T04:01:06.516Z,96663.28
2023-03-18T04:03:33.948Z,96660.41
2023-03-18T04:06:01.616Z,96658.97
2023-03-18T04:08:30.585Z,96658.84
2023-03-18T04:10:59.303Z,96658.03
2023-03-18T04:13:26.322Z,96661.34
2023-03-18T04:15:54.877Z,96658.44
2023-03-18T04:18:21.686Z,96668.69
2023-03-18T04:20:48.529Z,96674.00
2023-03-18T04:23:24.134Z,96684.81
2023-03-18T04:25:51.227Z,96688.75
2023-03-18T04:28:18.078Z,96685.88
2023-03-18T04:30:44.996Z,96687.06
2023-03-18T04:33:15.677Z,96688.94
2023-03-18T04:35:43.666Z,96690.13
2023-03-18T04:38:12.365Z,96694.03
2023-03-18T04:40:39.448Z,96693.06
2023-03-18T04:43:06.197Z,96696.22
2023-03-18T04:45:33.610Z,96691.25
2023-03-18T04:48:01.757Z,96704.03
2023-03-18T04:50:32.623Z,96703.06
2023-03-18T04:53:00.149Z,96702.81
2023-03-18T04:55:29.415Z,96702.56
2023-03-18T04:57:57.862Z,96707.88
2023-03-18T05:00:27.730Z,96704.03
2023-03-18T05:03:05.040Z,96703.06
2023-03-18T05:05:32.016Z,96706.25
2023-03-18T05:08:00.176Z,96699.81
2023-03-18T05:10:28.149Z,96688.63
2023-03-18T05:12:55.188Z,96690.38
2023-03-18T05:15:29.290Z,96690.81
2023-03-18T05:17:58.606Z,96687.81
2023-03-18T05:20:26.277Z,96689.56
2023-03-18T05:22:54.329Z,96685.25
2023-03-18T05:25:42.800Z,96693.91
2023-03-18T05:28:11.386Z,96695.66
2023-03-18T05:30:57.995Z,96691.34
2023-03-18T05:33:24.813Z,96688.34
2023-03-18T05:35:54.364Z,96689.53
2023-03-18T05:38:26.840Z,96696.84
2023-03-18T05:40:54.568Z,96696.72
2023-03-18T05:43:33.748Z,96697.31
2023-03-18T05:46:01.005Z,96700.59
2023-03-18T05:48:56.977Z,96703.63
2023-03-18T05:51:28.917Z,96700.78
2023-03-18T05:53:56.553Z,96705.41
2023-03-18T05:56:27.751Z,96700.38
2023-03-18T05:58:59.003Z,96702.81
2023-03-18T06:01:41.710Z,96706.72
2023-03-18T06:04:09.138Z,96702.41
2023-03-18T06:06:40.761Z,96702.28
2023-03-18T06:09:09.142Z,96700.69
2023-03-18T06:11:37.052Z,96699.84
2023-03-18T06:14:05.045Z,96705.16
2023-03-18T06:16:32.846Z,96707.16
2023-03-18T06:18:59.846Z,96703.56
2023-03-18T06:21:27.239Z,96710.28
2023-03-18T06:23:54.841Z,96704.13
2023-03-18T06:26:22.538Z,96711.59
2023-03-18T06:28:49.624Z,96708.88
2023-03-18T06:31:17.630Z,96710.28
2023-03-18T06:33:45.306Z,96713.03
2023-03-18T06:36:16.551Z,96712.50
2023-03-18T06:38:47.376Z,96719.19
2023-03-18T06:41:14.763Z,96726.66
2023-03-18T06:43:53.708Z,96713.75
2023-03-18T06:46:20.490Z,96720.81
2023-03-18T06:48:48.912Z,96720.25
2023-03-18T06:51:21.018Z,96717.38
2023-03-18T06:53:48.982Z,96710.19
2023-03-18T06:56:16.544Z,96715.94
2023-03-18T06:59:01.143Z,96714.06
2023-03-18T07:01:30.411Z,96704.75
2023-03-18T07:03:59.049Z,96714.66
2023-03-18T07:06:30.689Z,96716.78
2023-03-18T07:08:58.751Z,96718.81
2023-03-18T07:11:26.603Z,96716.94
2023-03-18T07:13:53.798Z,96713.59
2023-03-18T07:16:27.626Z,96716.13
2023-03-18T07:18:54.339Z,96717.25
2023-03-18T07:21:21.063Z,96723.41
2023-03-18T07:23:47.874Z,96721.34
2023-03-18T07:26:14.653Z,96726.88
2023-03-18T07:28:41.776Z,96725.22
2023-03-18T07:31:08.799Z,96734.69
2023-03-18T07:33:35.776Z,96740.16
2023-03-18T07:36:02.428Z,96734.75
2023-03-18T07:38:29.728Z,96735.28
2023-03-18T07:40:56.818Z,96745.75
2023-03-18T07:43:23.603Z,96741.53
2023-03-18T07:45:50.206Z,96735.34
2023-03-18T07:48:16.933Z,96741.66
2023-03-18T07:50:43.642Z,96738.34
2023-03-18T07:53:10.680Z,96740.94
2023-03-18T07:55:37.379Z,96747.84
2023-03-18T07:58:04.696Z,96739.88
2023-03-18T08:00:32.280Z,96742.91
2023-03-18T08:02:58.930Z,96756.63
2023-03-18T08:05:25.493Z,96744.25
2023-03-18T08:07:52.211Z,96738.97
2023-03-18T08:10:19.532Z,96745.66
2023-03-18T08:12:53.188Z,96732.44
2023-03-18T08:15:22.300Z,96741.16
2023-03-18T08:17:49.823Z,96743.03
2023-03-18T08:20:16.743Z,96754.38
2023-03-18T08:22:43.451Z,96733.41
2023-03-18T08:25:11.628Z,96734.50
2023-03-18T08:27:38.515Z,96743.41
2023-03-18T08:30:06.916Z,96743.19
2023-03-18T08:32:33.899Z,96736.97
2023-03-18T08:35:01.426Z,96736.78
2023-03-18T08:37:28.434Z,96727.44
2023-03-18T08:39:55.201Z,96748.53
2023-03-18T08:42:21.842Z,96740.53
2023-03-18T08:44:48.910Z,96743.66
2023-03-18T08:47:15.632Z,96749.59
2023-03-18T08:49:42.191Z,96751.75
2023-03-18T08:52:08.962Z,96748.88
2023-03-18T08:54:35.607Z,96757.44
2023-03-18T08:57:02.700Z,96747.19
2023-03-18T08:59:29.322Z,96748.16
2023-03-18T09:01:56.028Z,96744.84
2023-03-18T09:04:22.679Z,96751.75
2023-03-18T09:06:49.414Z,96751.84
2023-03-18T09:09:16.694Z,96756.50
2023-03-18T09:11:45.590Z,96746.97
2023-03-18T09:14:13.396Z,96747.69
2023-03-18T09:16:40.603Z,96740.31
2023-03-18T09:19:07.560Z,96730.88
2023-03-18T09:21:34.284Z,96732.00
2023-03-18T09:24:00.931Z,96726.97
2023-03-18T09:26:27.613Z,96739.84
2023-03-18T09:28:54.380Z,96730.16
2023-03-18T09:31:21.058Z,96723.56
2023-03-18T09:33:48.325Z,96732.31
2023-03-18T09:36:15.635Z,96729.97
2023-03-18T09:38:42.583Z,96731.63
2023-03-18T09:41:40.122Z,96725.41
2023-03-18T09:44:16.193Z,96728.09
2023-03-18T09:47:10.899Z,96722.97
2023-03-18T09:49:59.394Z,96719.25
2023-03-18T09:52:39.630Z,96719.19
2023-03-18T09:55:24.359Z,96715.84
2023-03-18T09:57:55.677Z,96721.69
2023-03-18T10:00:31.349Z,96728.09
2023-03-18T10:03:00.177Z,96727.56
2023-03-18T10:05:36.597Z,96736.81
2023-03-18T10:08:40.929Z,96730.19
2023-03-18T10:11:16.583Z,96735.69
2023-03-18T10:13:47.906Z,96722.13
2023-03-18T10:16:21.909Z,96732.28
2023-03-18T10:18:49.277Z,96741.63
2023-03-18T10:21:41.169Z,96728.03
2023-03-18T10:24:14.957Z,96736.88
2023-03-18T10:26:52.375Z,96737.75
2023-03-18T10:29:37.888Z,96735.88
2023-03-18T10:32:49.957Z,96744.94
2023-03-18T10:35:39.298Z,96754.50
2023-03-18T10:38:19.078Z,96747.66
2023-03-18T10:40:47.821Z,96750.53
2023-03-18T10:43:21.229Z,96750.63
2023-03-18T10:45:49.625Z,96739.41
2023-03-18T10:48:24.594Z,96735.22
2023-03-18T10:51:01.152Z,96732.19
2023-03-18T10:53:31.357Z,96732.56
2023-03-18T10:56:08.422Z,96737.84
2023-03-18T10:58:35.894Z,96731.56
2023-03-18T11:01:02.540Z,96729.91
2023-03-18T11:03:41.191Z,96732.41
2023-03-18T11:06:32.170Z,96742.75
2023-03-18T11:09:13.616Z,96737.00
2023-03-18T11:11:43.042Z,96737.50
2023-03-18T11:14:17.208Z,96737.50
2023-03-18T11:16:49.474Z,96729.97
2023-03-18T11:19:39.669Z,96739.53
2023-03-18T11:22:10.106Z,96735.34
2023-03-18T11:24:39.630Z,96725.03
2023-03-18T11:27:18.423Z,96725.50
2023-03-18T11:29:59.977Z,96726.75
2023-03-18T11:32:32.169Z,96724.53
2023-03-18T11:35:01.724Z,96720.53
2023-03-18T11:37:35.731Z,96720.06
2023-03-18T11:40:22.232Z,96724.44
2023-03-18T11:42:54.867Z,96726.66
2023-03-18T11:45:39.469Z,96708.09
2023-03-18T11:48:14.358Z,96711.31
2023-03-18T11:50:50.607Z,96707.59
2023-03-18T11:53:44.385Z,96700.00
2023-03-18T11:56:20.945Z,96704.03
2023-03-18T11:58:58.434Z,96692.41
2023-03-18T12:01:48.005Z,96695.75
2023-03-18T12:04:23.641Z,96690.06
2023-03-18T12:06:56.661Z,96699.09
2023-03-18T12:10:24.078Z,96695.53
2023-03-18T12:13:03.656Z,96686.41
2023-03-18T12:16:08.089Z,96679.94
2023-03-18T12:18:53.064Z,96687.84
2023-03-18T12:21:57.258Z,96690.25
2023-03-18T12:24:38.636Z,96683.94
2023-03-18T12:27:07.988Z,96683.84
2023-03-18T12:29:34.626Z,96684.75
2023-03-18T12:32:19.693Z,96676.72
2023-03-18T12:35:11.840Z,96680.88
2023-03-18T12:37:51.266Z,96667.91
2023-03-18T12:40:38.384Z,96671.97
2023-03-18T12:43:28.269Z,96666.09
2023-03-18T12:46:01.683Z,96673.50
2023-03-18T12:48:44.474Z,96671.22
2023-03-18T12:51:18.345Z,96673.78
2023-03-18T12:53:49.089Z,96673.00
2023-03-18T12:56:21.605Z,96669.44
2023-03-18T12:58:52.705Z,96669.38
2023-03-18T13:01:28.102Z,96675.84
2023-03-18T13:04:07.757Z,96665.28
2023-03-18T13:07:04.834Z,96669.28
2023-03-18T13:09:51.119Z,96665.53
2023-03-18T13:12:24.587Z,96663.41
2023-03-18T13:15:01.180Z,96663.69
2023-03-18T13:17:32.809Z,96666.44
2023-03-18T13:20:09.988Z,96663.09
2023-03-18T13:22:43.002Z,96657.53
2023-03-18T13:25:36.896Z,96654.53
2023-03-18T13:28:41.466Z,96663.22
2023-03-18T13:31:29.988Z,96659.19
2023-03-18T13:34:26.247Z,96657.97
2023-03-18T13:37:27.119Z,96663.56
2023-03-18T13:40:05.738Z,96657.63
2023-03-18T13:42:36.143Z,96656.56
2023-03-18T13:45:06.862Z,96652.66
2023-03-18T13:47:37.736Z,96654.94
2023-03-18T13:50:27.048Z,96648.72
2023-03-18T13:52:58.478Z,96643.03
2023-03-18T13:55:27.572Z,96649.19
2023-03-18T13:58:01.819Z,96648.09
2023-03-18T14:00:33.078Z,96652.13
2023-03-18T14:03:05.736Z,96643.50
2023-03-18T14:05:32.579Z,96643.69
2023-03-18T14:08:00.325Z,96640.34
2023-03-18T14:10:27.703Z,96645.31
2023-03-18T14:12:54.381Z,96638.38
2023-03-18T14:15:36.762Z,96641.19
2023-03-18T14:18:03.756Z,96634.09
2023-03-18T14:20:38.499Z,96638.50
2023-03-18T14:23:29.942Z,96637.19
2023-03-18T14:26:08.613Z,96635.63
2023-03-18T14:28:44.120Z,96633.91
2023-03-18T14:31:34.113Z,96624.03
2023-03-18T14:34:17.234Z,96628.44
2023-03-18T14:36:43.864Z,96625.00
2023-03-18T14:39:17.885Z,96625.91
2023-03-18T14:41:47.166Z,96628.84
2023-03-18T14:44:35.514Z,96623.44
2023-03-18T14:47:06.757Z,96617.13
2023-03-18T14:49:43.777Z,96622.03
2023-03-18T14:52:22.740Z,96626.13
2023-03-18T14:54:52.555Z,96612.00
2023-03-18T14:57:22.335Z,96631.72
2023-03-18T14:59:48.955Z,96618.56
2023-03-18T15:02:28.025Z,96612.53
2023-03-18T15:04:56.640Z,96620.84
2023-03-18T15:07:32.737Z,96619.03
2023-03-18T15:10:07.384Z,96619.69
2023-03-18T15:12:34.432Z,96610.34
2023-03-18T15:15:01.131Z,96611.84
2023-03-18T15:17:27.813Z,96624.75
2023-03-18T15:20:00.080Z,96613.47
2023-03-18T15:22:29.959Z,96615.19
2023-03-18T15:25:02.379Z,96620.44
2023-03-18T15:27:31.859Z,96617.44
2023-03-18T15:30:00.788Z,96621.78
2023-03-18T15:32:52.432Z,96624.09
2023-03-18T15:35:27.684Z,96618.47
2023-03-18T15:38:19.256Z,96615.97
2023-03-18T15:40:54.931Z,96630.13
2023-03-18T15:43:29.401Z,96622.47
2023-03-18T15:45:58.782Z,96622.03
2023-03-18T15:48:33.322Z,96620.50
2023-03-18T15:51:02.397Z,96627.53
2023-03-18T15:53:34.844Z,96615.56
2023-03-18T15:56:18.331Z,96624.72
2023-03-18T15:58:45.251Z,96614.22
2023-03-18T16:01:17.866Z,96619.06
2023-03-18T16:03:46.683Z,96612.66
2023-03-18T16:06:14.730Z,96616.88
2023-03-18T16:08:41.693Z,96613.06
2023-03-18T16:11:10.141Z,96627.44
2023-03-18T16:13:37.246Z,96620.50
2023-03-18T16:16:04.183Z,96627.09
2023-03-18T16:18:32.601Z,96626.25
2023-03-18T16:21:00.521Z,96628.47
2023-03-18T16:23:27.236Z,96620.72
2023-03-18T16:25:55.430Z,96627.44
2023-03-18T16:28:28.072Z,96627.09
2023-03-18T16:30:58.121Z,96625.69
2023-03-18T16:33:24.957Z,96625.59
2023-03-18T16:35:59.748Z,96629.88
2023-03-18T16:38:28.337Z,96633.81
2023-03-18T16:40:56.150Z,96639.63
2023-03-18T16:43:27.041Z,96641.13
2023-03-18T16:45:57.965Z,96643.59
2023-03-18T16:48:26.150Z,96644.56
2023-03-18T16:50:56.551Z,96640.94
2023-03-18T16:53:27.218Z,96647.38
2023-03-18T16:55:59.727Z,96643.53
2023-03-18T16:58:33.661Z,96642.94
2023-03-18T17:01:00.822Z,96653.03
2023-03-18T17:03:27.654Z,96658.94
2023-03-18T17:05:54.468Z,96660.47
2023-03-18T17:08:21.780Z,96665.06
2023-03-18T17:10:51.450Z,96665.19
2023-03-18T17:13:23.052Z,96664.47
2023-03-18T17:15:50.946Z,96659.97
2023-03-18T17:18:20.606Z,96663.72
2023-03-18T17:20:47.463Z,96676.56
2023-03-18T17:23:21.129Z,96670.69
2023-03-18T17:25:53.171Z,96681.72
2023-03-18T17:28:46.119Z,96677.50
2023-03-18T17:31:13.540Z,96673.47
2023-03-18T17:33:41.058Z,96673.56
2023-03-18T17:36:08.271Z,96671.72
2023-03-18T17:38:35.254Z,96679.22
2023-03-18T17:41:03.952Z,96679.34
2023-03-18T17:43:35.861Z,96679.69
2023-03-18T17:46:03.797Z,96684.31
2023-03-18T17:48:32.670Z,96695.44
2023-03-18T17:51:02.030Z,96683.16
2023-03-18T17:53:37.395Z,96683.88
2023-03-18T17:56:06.424Z,96680.84
2023-03-18T17:58:34.513Z,96682.63
2023-03-18T18:01:05.775Z,96683.84
2023-03-18T18:03:34.938Z,96676.69
2023-03-18T18:06:02.179Z,96675.84
2023-03-18T18:08:31.590Z,96672.41
2023-03-18T18:11:06.219Z,96680.94
2023-03-18T18:13:33.679Z,96676.38
2023-03-18T18:16:00.973Z,96687.16
2023-03-18T18:18:29.096Z,96677.97
2023-03-18T18:20:56.999Z,96683.59
2023-03-18T18:23:35.478Z,96681.47
2023-03-18T18:26:08.076Z,96676.25
2023-03-18T18:28:40.417Z,96675.66
2023-03-18T18:31:09.563Z,96677.06
2023-03-18T18:33:38.150Z,96678.25
2023-03-18T18:36:05.912Z,96682.78
2023-03-18T18:38:32.852Z,96681.09
2023-03-18T18:41:00.122Z,96680.00
2023-03-18T18:43:27.378Z,96689.19
2023-03-18T18:45:56.133Z,96695.59
2023-03-18T18:48:30.462Z,96688.94
2023-03-18T18:50:58.547Z,96689.84
2023-03-18T18:53:27.771Z,96691.41
2023-03-18T18:56:00.170Z,96702.38
2023-03-18T18:58:29.399Z,96699.16
2023-03-18T19:00:57.433Z,96697.84
2023-03-18T19:03:27.774Z,96705.44
2023-03-18T19:05:55.378Z,96707.59
2023-03-18T19:08:27.747Z,96704.84
2023-03-18T19:10:58.951Z,96700.81
2023-03-18T19:13:29.511Z,96709.75
2023-03-18T19:15:57.048Z,96705.59
2023-03-18T19:18:25.316Z,96713.06
2023-03-18T19:20:53.300Z,96718.44
2023-03-18T19:23:23.542Z,96706.78
2023-03-18T19:25:50.510Z,96714.28
2023-03-18T19:28:24.857Z,96712.25
2023-03-18T19:30:53.669Z,96720.47
2023-03-18T19:33:20.774Z,96721.81
2023-03-18T19:35:47.667Z,96721.81
2023-03-18T19:38:17.793Z,96724.41
2023-03-18T19:40:44.632Z,96727.75
2023-03-18T19:43:15.934Z,96732.53
2023-03-18T19:45:44.214Z,96732.44
2023-03-18T19:48:17.310Z,96728.94
2023-03-18T19:50:45.055Z,96743.88
2023-03-18T19:53:13.266Z,96741.75
2023-03-18T19:55:41.377Z,96742.31
2023-03-18T19:58:23.159Z,96742.91
2023-03-18T20:00:51.228Z,96740.78
2023-03-18T20:03:20.514Z,96746.84
2023-03-18T20:05:47.915Z,96747.47
2023-03-18T20:08:14.879Z,96752.84
2023-03-18T20:10:43.416Z,96752.69
2023-03-18T20:13:17.090Z,96753.19
2023-03-18T20:15:44.065Z,96752.34
2023-03-18T20:18:16.968Z,96763.22
2023-03-18T20:20:46.090Z,96764.53
2023-03-18T20:23:22.255Z,96760.94
2023-03-18T20:25:51.804Z,96760.84
2023-03-18T20:28:20.663Z,96759.25
2023-03-18T20:30:51.637Z,96763.91
2023-03-18T20:33:19.389Z,96761.78
2023-03-18T20:35:47.155Z,96769.84
2023-03-18T20:38:24.018Z,96768.44
2023-03-18T20:40:51.063Z,96776.53
2023-03-18T20:43:20.466Z,96774.97
2023-03-18T20:45:47.260Z,96775.59
2023-03-18T20:48:14.289Z,96781.63
2023-03-18T20:50:41.161Z,96787.00
2023-03-18T20:53:15.326Z,96790.94
2023-03-18T20:55:42.161Z,96785.34
2023-03-18T20:58:14.984Z,96790.72
2023-03-18T21:00:41.791Z,96798.78
2023-03-18T21:03:23.977Z,96796.66
2023-03-18T21:05:52.036Z,96800.00
2023-03-18T21:08:19.174Z,96804.63
2023-03-18T21:10:46.336Z,96804.63
2023-03-18T21:13:18.642Z,96804.50
2023-03-18T21:15:45.295Z,96797.59
2023-03-18T21:18:15.070Z,96803.66
2023-03-18T21:20:41.899Z,96798.06
2023-03-18T21:23:17.989Z,96796.63
2023-03-18T21:25:44.690Z,96799.97
2023-03-18T21:28:15.932Z,96803.28
2023-03-18T21:30:43.423Z,96794.34
2023-03-18T21:33:29.930Z,96797.69
2023-03-18T21:35:57.301Z,96799.59
2023-03-18T21:38:25.761Z,96800.19
2023-03-18T21:40:53.141Z,96791.84
2023-03-18T21:43:34.654Z,96797.19
2023-03-18T21:46:02.937Z,96797.78
2023-03-18T21:48:29.617Z,96807.31
2023-03-18T21:50:56.315Z,96803.72
2023-03-18T21:53:24.221Z,96798.13
2023-03-18T21:55:51.794Z,96802.19
2023-03-18T21:58:23.293Z,96800.50
2023-03-18T22:00:52.677Z,96804.56
2023-03-18T22:03:21.611Z,96802.28
2023-03-18T22:05:50.151Z,96800.72
2023-03-18T22:08:17.294Z,96808.81
2023-03-18T22:10:44.545Z,96800.47
2023-03-18T22:13:24.053Z,96791.41
2023-03-18T22:15:52.227Z,96798.09
2023-03-18T22:18:19.252Z,96800.56
2023-03-18T22:20:47.607Z,96801.88
2023-03-18T22:23:16.935Z,96803.03
2023-03-18T22:25:45.354Z,96802.22
2023-03-18T22:28:12.387Z,96800.63
2023-03-18T22:30:39.916Z,96800.38
2023-03-18T22:33:06.678Z,96799.53
2023-03-18T22:35:33.873Z,96797.38
2023-03-18T22:38:00.908Z,96800.72
2023-03-18T22:40:29.896Z,96799.88
2023-03-18T22:42:59.128Z,96800.44
2023-03-18T22:45:32.795Z,96807.09
2023-03-18T22:48:02.380Z,96807.72
2023-03-18T22:50:31.013Z,96806.84
2023-03-18T22:53:03.050Z,96806.72
2023-03-18T22:55:37.230Z,96812.06
2023-03-18T22:58:04.093Z,96811.22
2023-03-18T23:00:41.252Z,96820.72
2023-03-18T23:03:20.106Z,96824.63
2023-03-18T23:05:48.688Z,96819.59
2023-03-18T23:08:15.326Z,96823.53
2023-03-18T23:10:43.776Z,96826.84
2023-03-18T23:13:32.727Z,96823.38
2023-03-18T23:15:59.465Z,96825.97
2023-03-18T23:18:26.152Z,96818.34
2023-03-18T23:20:52.880Z,96829.16
2023-03-18T23:23:21.505Z,96826.28
2023-03-18T23:25:49.728Z,96821.25
2023-03-18T23:28:17.107Z,96823.28
2023-03-18T23:30:47.247Z,96824.59
2023-03-18T23:33:14.140Z,96829.22
2023-03-18T23:35:41.781Z,96818.13
2023-03-18T23:38:08.593Z,96824.19
2023-03-18T23:40:35.457Z,96834.28
2023-03-18T23:43:02.351Z,96832.84
2023-03-18T23:45:29.305Z,96837.47
2023-03-18T23:47:56.301Z,96832.56
2023-03-18T23:50:23.331Z,96835.91
2023-03-18T23:52:50.456Z,96837.78
2023-03-18T23:55:37.950Z,96833.63
2023-03-18T23:58:03.985Z,96833.47
